sensor_id;sensor_type;location;lat;lon;timestamp;pressure;altitude;pressure_sealevel;temperature;humidity
78409;BME280;67697;50.750;-3.270;2023-08-08T00:01:24;101180.62;;;20.52;46.78
78409;BME280;67697;50.750;-3.270;2023-08-08T00:03:50;101176.64;;;20.47;46.73
78409;BME280;67697;50.750;-3.270;2023-08-08T00:06:16;101178.27;;;19.68;48.49
78409;BME280;67697;50.750;-3.270;2023-08-08T00:08:41;101170.16;;;20.43;47.35
78409;BME280;67697;50.750;-3.270;2023-08-08T00:11:07;101174.73;;;18.61;50.92
78409;BME280;67697;50.750;-3.270;2023-08-08T00:13:32;101170.00;;;19.93;48.55
78409;BME280;67697;50.750;-3.270;2023-08-08T00:15:58;101167.17;;;19.35;49.56
78409;BME280;67697;50.750;-3.270;2023-08-08T00:18:23;101166.01;;;19.00;49.44
78409;BME280;67697;50.750;-3.270;2023-08-08T00:20:49;101166.15;;;18.70;50.12
78409;BME280;67697;50.750;-3.270;2023-08-08T00:23:15;101164.00;;;19.43;48.42
78409;BME280;67697;50.750;-3.270;2023-08-08T00:25:40;101160.37;;;20.47;46.21
78409;BME280;67697;50.750;-3.270;2023-08-08T00:28:06;101161.28;;;20.74;45.58
78409;BME280;67697;50.750;-3.270;2023-08-08T00:30:31;101164.03;;;20.53;45.73
78409;BME280;67697;50.750;-3.270;2023-08-08T00:32:57;101158.06;;;20.88;45.16
78409;BME280;67697;50.750;-3.270;2023-08-08T00:35:27;101154.60;;;20.61;45.12
78409;BME280;67697;50.750;-3.270;2023-08-08T00:37:48;101154.31;;;20.58;46.07
78409;BME280;67697;50.750;-3.270;2023-08-08T00:40:14;101146.27;;;20.16;46.92
78409;BME280;67697;50.750;-3.270;2023-08-08T00:42:39;101141.93;;;18.78;49.15
78409;BME280;67697;50.750;-3.270;2023-08-08T00:45:05;101136.54;;;20.10;46.98
78409;BME280;67697;50.750;-3.270;2023-08-08T00:47:31;101138.08;;;17.73;51.47
78409;BME280;67697;50.750;-3.270;2023-08-08T00:49:56;101138.27;;;17.97;51.56
78409;BME280;67697;50.750;-3.270;2023-08-08T00:52:21;101129.57;;;20.11;47.10
78409;BME280;67697;50.750;-3.270;2023-08-08T00:54:47;101130.21;;;19.17;47.94
78409;BME280;67697;50.750;-3.270;2023-08-08T00:57:12;101129.82;;;18.85;50.18
78409;BME280;67697;50.750;-3.270;2023-08-08T00:59:39;101124.98;;;20.32;47.17
78409;BME280;67697;50.750;-3.270;2023-08-08T01:02:04;101125.67;;;18.72;49.74
78409;BME280;67697;50.750;-3.270;2023-08-08T01:04:29;101121.46;;;19.71;48.00
78409;BME280;67697;50.750;-3.270;2023-08-08T01:07:00;101124.06;;;19.08;49.19
78409;BME280;67697;50.750;-3.270;2023-08-08T01:09:25;101118.27;;;19.88;48.46
78409;BME280;67697;50.750;-3.270;2023-08-08T01:11:46;101110.90;;;19.27;49.99
78409;BME280;67697;50.750;-3.270;2023-08-08T01:14:12;101106.78;;;20.23;48.37
78409;BME280;67697;50.750;-3.270;2023-08-08T01:16:37;101104.40;;;20.43;48.01
78409;BME280;67697;50.750;-3.270;2023-08-08T01:19:04;101105.22;;;20.00;48.37
78409;BME280;67697;50.750;-3.270;2023-08-08T01:21:30;101094.59;;;20.29;47.74
78409;BME280;67697;50.750;-3.270;2023-08-08T01:23:56;101090.88;;;20.05;48.00
78409;BME280;67697;50.750;-3.270;2023-08-08T01:26:20;101094.46;;;18.94;49.75
78409;BME280;67697;50.750;-3.270;2023-08-08T01:28:45;101096.99;;;18.64;50.33
78409;BME280;67697;50.750;-3.270;2023-08-08T01:31:10;101097.25;;;20.03;48.37
78409;BME280;67697;50.750;-3.270;2023-08-08T01:33:36;101096.33;;;19.98;48.06
78409;BME280;67697;50.750;-3.270;2023-08-08T01:36:07;101097.35;;;20.23;47.34
78409;BME280;67697;50.750;-3.270;2023-08-08T01:38:31;101097.21;;;20.30;47.01
78409;BME280;67697;50.750;-3.270;2023-08-08T01:40:54;101099.27;;;20.48;46.03
78409;BME280;67697;50.750;-3.270;2023-08-08T01:43:18;101097.03;;;20.53;45.64
78409;BME280;67697;50.750;-3.270;2023-08-08T01:45:44;101098.28;;;20.36;46.11
78409;BME280;67697;50.750;-3.270;2023-08-08T01:48:10;101098.02;;;20.69;45.52
78409;BME280;67697;50.750;-3.270;2023-08-08T01:50:35;101095.09;;;20.28;45.96
78409;BME280;67697;50.750;-3.270;2023-08-08T01:53:00;101095.15;;;20.39;45.71
78409;BME280;67697;50.750;-3.270;2023-08-08T01:55:26;101096.91;;;19.19;47.94
78409;BME280;67697;50.750;-3.270;2023-08-08T01:57:51;101095.93;;;19.78;47.25
78409;BME280;67697;50.750;-3.270;2023-08-08T02:00:17;101096.95;;;17.53;52.00
78409;BME280;67697;50.750;-3.270;2023-08-08T02:02:42;101094.05;;;17.79;51.64
78409;BME280;67697;50.750;-3.270;2023-08-08T02:05:08;101086.13;;;20.18;48.00
78409;BME280;67697;50.750;-3.270;2023-08-08T02:07:33;101084.85;;;20.30;47.91
78409;BME280;67697;50.750;-3.270;2023-08-08T02:09:59;101080.79;;;19.87;48.40
78409;BME280;67697;50.750;-3.270;2023-08-08T02:12:25;101076.02;;;19.69;48.44
78409;BME280;67697;50.750;-3.270;2023-08-08T02:14:51;101071.36;;;19.93;49.10
78409;BME280;67697;50.750;-3.270;2023-08-08T02:17:16;101072.93;;;19.89;49.90
78409;BME280;67697;50.750;-3.270;2023-08-08T02:19:41;101079.96;;;17.09;57.27
78409;BME280;67697;50.750;-3.270;2023-08-08T02:22:07;101074.42;;;18.08;55.40
78409;BME280;67697;50.750;-3.270;2023-08-08T02:24:32;101069.42;;;19.34;52.99
78409;BME280;67697;50.750;-3.270;2023-08-08T02:26:58;101067.25;;;19.90;51.02
78409;BME280;67697;50.750;-3.270;2023-08-08T02:29:24;101062.46;;;20.21;50.27
78409;BME280;67697;50.750;-3.270;2023-08-08T02:31:49;101058.12;;;19.77;50.81
78409;BME280;67697;50.750;-3.270;2023-08-08T02:34:15;101053.24;;;19.44;51.72
78409;BME280;67697;50.750;-3.270;2023-08-08T02:36:40;101058.28;;;16.56;58.42
78409;BME280;67697;50.750;-3.270;2023-08-08T02:39:06;101044.90;;;18.27;54.67
78409;BME280;67697;50.750;-3.270;2023-08-08T02:41:31;101034.87;;;19.49;52.21
78409;BME280;67697;50.750;-3.270;2023-08-08T02:43:57;101036.93;;;18.95;52.96
78409;BME280;67697;50.750;-3.270;2023-08-08T02:46:23;101038.76;;;18.99;52.26
78409;BME280;67697;50.750;-3.270;2023-08-08T02:48:48;101034.53;;;17.63;56.43
78409;BME280;67697;50.750;-3.270;2023-08-08T02:51:14;101048.92;;;17.16;58.80
78409;BME280;67697;50.750;-3.270;2023-08-08T02:53:39;101054.02;;;17.25;59.79
78409;BME280;67697;50.750;-3.270;2023-08-08T02:56:05;101051.97;;;17.09;59.20
78409;BME280;67697;50.750;-3.270;2023-08-08T02:58:30;101051.00;;;16.95;59.77
78409;BME280;67697;50.750;-3.270;2023-08-08T03:00:56;101048.08;;;17.18;59.61
78409;BME280;67697;50.750;-3.270;2023-08-08T03:03:22;101040.66;;;17.46;57.73
78409;BME280;67697;50.750;-3.270;2023-08-08T03:05:47;101046.16;;;17.39;59.10
78409;BME280;67697;50.750;-3.270;2023-08-08T03:08:13;101040.21;;;17.56;58.51
78409;BME280;67697;50.750;-3.270;2023-08-08T03:10:38;101037.84;;;17.16;59.85
78409;BME280;67697;50.750;-3.270;2023-08-08T03:13:04;101038.96;;;16.82;61.83
78409;BME280;67697;50.750;-3.270;2023-08-08T03:15:30;101045.48;;;16.42;63.07
78409;BME280;67697;50.750;-3.270;2023-08-08T03:17:55;101044.55;;;16.41;63.30
78409;BME280;67697;50.750;-3.270;2023-08-08T03:20:21;101039.69;;;16.31;64.25
78409;BME280;67697;50.750;-3.270;2023-08-08T03:22:47;101031.55;;;15.66;67.47
78409;BME280;67697;50.750;-3.270;2023-08-08T03:25:12;101026.78;;;16.15;66.37
78409;BME280;67697;50.750;-3.270;2023-08-08T03:27:38;101022.80;;;15.77;65.55
78409;BME280;67697;50.750;-3.270;2023-08-08T03:30:04;101024.59;;;16.34;65.12
78409;BME280;67697;50.750;-3.270;2023-08-08T03:32:29;101020.95;;;16.96;62.69
78409;BME280;67697;50.750;-3.270;2023-08-08T03:34:55;101024.86;;;16.73;63.09
78409;BME280;67697;50.750;-3.270;2023-08-08T03:37:20;101027.29;;;16.55;64.42
78409;BME280;67697;50.750;-3.270;2023-08-08T03:39:46;101027.28;;;15.98;65.84
78409;BME280;67697;50.750;-3.270;2023-08-08T03:42:11;101027.91;;;16.59;64.05
78409;BME280;67697;50.750;-3.270;2023-08-08T03:44:37;101024.47;;;17.23;62.76
78409;BME280;67697;50.750;-3.270;2023-08-08T03:47:03;101024.89;;;17.11;63.29
78409;BME280;67697;50.750;-3.270;2023-08-08T03:49:28;101019.48;;;17.37;61.54
78409;BME280;67697;50.750;-3.270;2023-08-08T03:51:54;101015.73;;;17.68;60.52
78409;BME280;67697;50.750;-3.270;2023-08-08T03:54:19;101014.06;;;16.73;63.94
78409;BME280;67697;50.750;-3.270;2023-08-08T03:56:45;101011.38;;;16.66;63.20
78409;BME280;67697;50.750;-3.270;2023-08-08T03:59:10;101011.78;;;15.85;66.30
78409;BME280;67697;50.750;-3.270;2023-08-08T04:01:41;101009.57;;;16.43;65.41
78409;BME280;67697;50.750;-3.270;2023-08-08T04:04:02;101008.20;;;16.44;65.79
78409;BME280;67697;50.750;-3.270;2023-08-08T04:06:27;101003.28;;;17.10;63.57
78409;BME280;67697;50.750;-3.270;2023-08-08T04:08:53;101003.07;;;16.01;66.06
78409;BME280;67697;50.750;-3.270;2023-08-08T04:11:19;101004.68;;;16.54;65.03
78409;BME280;67697;50.750;-3.270;2023-08-08T04:13:44;101001.25;;;16.40;65.77
78409;BME280;67697;50.750;-3.270;2023-08-08T04:16:09;100998.78;;;16.93;64.39
78409;BME280;67697;50.750;-3.270;2023-08-08T04:18:35;101001.09;;;16.80;64.03
78409;BME280;67697;50.750;-3.270;2023-08-08T04:21:01;101001.65;;;16.93;63.65
78409;BME280;67697;50.750;-3.270;2023-08-08T04:23:26;101002.58;;;16.42;65.84
78409;BME280;67697;50.750;-3.270;2023-08-08T04:25:52;100992.06;;;17.17;64.00
78409;BME280;67697;50.750;-3.270;2023-08-08T04:28:17;100987.49;;;16.84;64.24
78409;BME280;67697;50.750;-3.270;2023-08-08T04:30:43;100988.65;;;16.61;65.85
78409;BME280;67697;50.750;-3.270;2023-08-08T04:33:08;100990.95;;;16.80;65.55
78409;BME280;67697;50.750;-3.270;2023-08-08T04:35:34;100993.66;;;16.13;68.22
78409;BME280;67697;50.750;-3.270;2023-08-08T04:37:59;100990.89;;;16.21;68.20
78409;BME280;67697;50.750;-3.270;2023-08-08T04:40:25;100984.24;;;16.36;67.44
78409;BME280;67697;50.750;-3.270;2023-08-08T04:42:51;100980.54;;;16.18;69.02
78409;BME280;67697;50.750;-3.270;2023-08-08T04:45:16;100975.65;;;16.31;68.09
78409;BME280;67697;50.750;-3.270;2023-08-08T04:47:42;100976.58;;;16.28;68.98
78409;BME280;67697;50.750;-3.270;2023-08-08T04:50:12;100967.99;;;16.28;69.26
78409;BME280;67697;50.750;-3.270;2023-08-08T04:52:33;100966.50;;;16.65;67.22
78409;BME280;67697;50.750;-3.270;2023-08-08T04:54:58;100967.74;;;16.52;66.46
78409;BME280;67697;50.750;-3.270;2023-08-08T04:57:24;100975.07;;;16.04;68.03
78409;BME280;67697;50.750;-3.270;2023-08-08T04:59:49;100977.01;;;16.25;68.19
78409;BME280;67697;50.750;-3.270;2023-08-08T05:02:15;100975.90;;;16.23;68.63
78409;BME280;67697;50.750;-3.270;2023-08-08T05:04:41;100978.34;;;15.88;71.01
78409;BME280;67697;50.750;-3.270;2023-08-08T05:07:06;100977.74;;;15.19;72.62
78409;BME280;67697;50.750;-3.270;2023-08-08T05:09:32;100976.08;;;15.39;73.06
78409;BME280;67697;50.750;-3.270;2023-08-08T05:11:58;100972.01;;;15.17;75.36
78409;BME280;67697;50.750;-3.270;2023-08-08T05:14:23;100972.52;;;14.84;77.07
78409;BME280;67697;50.750;-3.270;2023-08-08T05:16:49;100968.13;;;15.20;75.08
78409;BME280;67697;50.750;-3.270;2023-08-08T05:19:15;100971.32;;;14.80;77.72
78409;BME280;67697;50.750;-3.270;2023-08-08T05:21:40;100966.79;;;15.25;76.12
78409;BME280;67697;50.750;-3.270;2023-08-08T05:24:06;100966.49;;;15.11;75.14
78409;BME280;67697;50.750;-3.270;2023-08-08T05:26:31;100966.00;;;14.91;76.29
78409;BME280;67697;50.750;-3.270;2023-08-08T05:28:57;100968.02;;;15.02;77.86
78409;BME280;67697;50.750;-3.270;2023-08-08T05:31:22;100966.10;;;15.39;75.68
78409;BME280;67697;50.750;-3.270;2023-08-08T05:33:48;100969.91;;;15.90;73.88
78409;BME280;67697;50.750;-3.270;2023-08-08T05:36:13;100968.99;;;16.11;73.30
78409;BME280;67697;50.750;-3.270;2023-08-08T05:38:38;100968.59;;;15.93;73.92
78409;BME280;67697;50.750;-3.270;2023-08-08T05:41:04;100968.19;;;15.98;73.00
78409;BME280;67697;50.750;-3.270;2023-08-08T05:43:30;100971.58;;;15.47;74.63
78409;BME280;67697;50.750;-3.270;2023-08-08T05:45:55;100972.09;;;15.80;73.19
78409;BME280;67697;50.750;-3.270;2023-08-08T05:48:21;100966.41;;;16.04;72.93
78409;BME280;67697;50.750;-3.270;2023-08-08T05:50:47;100962.63;;;16.47;72.84
78409;BME280;67697;50.750;-3.270;2023-08-08T05:53:12;100960.52;;;15.98;74.07
78409;BME280;67697;50.750;-3.270;2023-08-08T05:55:40;100963.63;;;16.18;72.83
78409;BME280;67697;50.750;-3.270;2023-08-08T05:58:04;100965.12;;;15.63;75.40
78409;BME280;67697;50.750;-3.270;2023-08-08T06:00:30;100966.23;;;15.10;77.31
78409;BME280;67697;50.750;-3.270;2023-08-08T06:02:55;100962.51;;;15.29;78.33
78409;BME280;67697;50.750;-3.270;2023-08-08T06:05:22;100958.05;;;15.26;78.60
78409;BME280;67697;50.750;-3.270;2023-08-08T06:07:52;100957.45;;;15.20;79.42
78409;BME280;67697;50.750;-3.270;2023-08-08T06:10:11;100959.70;;;15.00;79.77
78409;BME280;67697;50.750;-3.270;2023-08-08T06:12:37;100959.13;;;15.24;79.33
78409;BME280;67697;50.750;-3.270;2023-08-08T06:15:07;100957.97;;;15.35;79.76
78409;BME280;67697;50.750;-3.270;2023-08-08T06:17:28;100952.95;;;15.22;78.94
78409;BME280;67697;50.750;-3.270;2023-08-08T06:19:53;100947.80;;;15.13;78.40
78409;BME280;67697;50.750;-3.270;2023-08-08T06:22:19;100945.50;;;15.10;80.36
78409;BME280;67697;50.750;-3.270;2023-08-08T06:24:59;100944.89;;;14.70;80.98
78409;BME280;67697;50.750;-3.270;2023-08-08T06:27:10;100943.16;;;14.76;81.62
78409;BME280;67697;50.750;-3.270;2023-08-08T06:29:36;100944.03;;;15.79;77.83
78409;BME280;67697;50.750;-3.270;2023-08-08T06:32:07;100942.77;;;16.62;75.15
78409;BME280;67697;50.750;-3.270;2023-08-08T06:34:27;100938.69;;;15.40;77.76
78409;BME280;67697;50.750;-3.270;2023-08-08T06:36:58;100940.94;;;14.73;81.45
78409;BME280;67697;50.750;-3.270;2023-08-08T06:39:18;100950.62;;;15.46;78.18
78409;BME280;67697;50.750;-3.270;2023-08-08T06:41:44;100950.86;;;15.95;76.72
78409;BME280;67697;50.750;-3.270;2023-08-08T06:44:09;100944.85;;;15.43;78.15
78409;BME280;67697;50.750;-3.270;2023-08-08T06:46:35;100941.20;;;15.63;78.19
78409;BME280;67697;50.750;-3.270;2023-08-08T06:49:00;100939.93;;;15.24;80.23
78409;BME280;67697;50.750;-3.270;2023-08-08T06:51:26;100939.78;;;15.05;80.40
78409;BME280;67697;50.750;-3.270;2023-08-08T06:53:52;100938.86;;;15.11;80.02
78409;BME280;67697;50.750;-3.270;2023-08-08T06:56:17;100939.57;;;14.91;81.95
78409;BME280;67697;50.750;-3.270;2023-08-08T06:58:43;100936.55;;;14.95;81.50
78409;BME280;67697;50.750;-3.270;2023-08-08T07:01:08;100935.05;;;15.31;80.91
78409;BME280;67697;50.750;-3.270;2023-08-08T07:03:34;100933.47;;;15.09;81.36
78409;BME280;67697;50.750;-3.270;2023-08-08T07:05:59;100934.02;;;15.48;79.99
78409;BME280;67697;50.750;-3.270;2023-08-08T07:08:25;100935.64;;;15.30;80.94
78409;BME280;67697;50.750;-3.270;2023-08-08T07:10:50;100940.08;;;15.36;80.66
78409;BME280;67697;50.750;-3.270;2023-08-08T07:13:16;100935.95;;;15.87;78.97
78409;BME280;67697;50.750;-3.270;2023-08-08T07:15:42;100932.65;;;16.39;76.95
78409;BME280;67697;50.750;-3.270;2023-08-08T07:18:07;100927.47;;;14.88;81.50
78409;BME280;67697;50.750;-3.270;2023-08-08T07:20:33;100930.66;;;15.07;82.34
78409;BME280;67697;50.750;-3.270;2023-08-08T07:22:58;100923.76;;;14.93;81.92
78409;BME280;67697;50.750;-3.270;2023-08-08T07:25:24;100916.57;;;15.71;78.48
78409;BME280;67697;50.750;-3.270;2023-08-08T07:27:50;100910.79;;;15.72;79.47
78409;BME280;67697;50.750;-3.270;2023-08-08T07:30:15;100912.58;;;15.46;80.63
78409;BME280;67697;50.750;-3.270;2023-08-08T07:32:40;100909.11;;;15.24;83.05
78409;BME280;67697;50.750;-3.270;2023-08-08T07:35:07;100911.77;;;15.46;81.35
78409;BME280;67697;50.750;-3.270;2023-08-08T07:37:32;100913.51;;;15.04;83.08
78409;BME280;67697;50.750;-3.270;2023-08-08T07:39:57;100915.88;;;16.14;79.85
78409;BME280;67697;50.750;-3.270;2023-08-08T07:42:23;100908.29;;;15.80;80.69
78409;BME280;67697;50.750;-3.270;2023-08-08T07:44:48;100903.73;;;15.29;82.64
78409;BME280;67697;50.750;-3.270;2023-08-08T07:47:15;100898.41;;;15.16;83.27
78409;BME280;67697;50.750;-3.270;2023-08-08T07:49:40;100903.82;;;15.84;80.61
78409;BME280;67697;50.750;-3.270;2023-08-08T07:52:06;100908.55;;;15.86;79.95
78409;BME280;67697;50.750;-3.270;2023-08-08T07:54:31;100907.87;;;15.08;82.33
78409;BME280;67697;50.750;-3.270;2023-08-08T07:56:56;100899.99;;;15.56;82.88
78409;BME280;67697;50.750;-3.270;2023-08-08T07:59:22;100894.79;;;15.69;80.99
78409;BME280;67697;50.750;-3.270;2023-08-08T08:01:47;100893.94;;;16.18;79.01
78409;BME280;67697;50.750;-3.270;2023-08-08T08:04:14;100898.54;;;15.36;81.43
78409;BME280;67697;50.750;-3.270;2023-08-08T08:06:39;100899.88;;;15.38;81.82
78409;BME280;67697;50.750;-3.270;2023-08-08T08:09:04;100901.00;;;16.00;80.11
78409;BME280;67697;50.750;-3.270;2023-08-08T08:11:30;100893.29;;;15.40;81.36
78409;BME280;67697;50.750;-3.270;2023-08-08T08:13:58;100880.31;;;15.57;83.23
78409;BME280;67697;50.750;-3.270;2023-08-08T08:16:21;100870.68;;;14.93;84.98
78409;BME280;67697;50.750;-3.270;2023-08-08T08:18:46;100868.48;;;15.30;84.77
78409;BME280;67697;50.750;-3.270;2023-08-08T08:21:12;100869.36;;;15.70;84.62
78409;BME280;67697;50.750;-3.270;2023-08-08T08:23:38;100870.50;;;15.44;84.26
78409;BME280;67697;50.750;-3.270;2023-08-08T08:26:03;100869.26;;;15.44;84.80
78409;BME280;67697;50.750;-3.270;2023-08-08T08:28:29;100870.67;;;15.35;83.84
78409;BME280;67697;50.750;-3.270;2023-08-08T08:30:54;100871.69;;;16.08;82.19
78409;BME280;67697;50.750;-3.270;2023-08-08T08:33:20;100873.75;;;16.32;81.15
78409;BME280;67697;50.750;-3.270;2023-08-08T08:35:45;100872.50;;;15.88;81.78
78409;BME280;67697;50.750;-3.270;2023-08-08T08:38:11;100865.81;;;15.92;81.52
78409;BME280;67697;50.750;-3.270;2023-08-08T08:40:38;100864.90;;;16.12;81.20
78409;BME280;67697;50.750;-3.270;2023-08-08T08:43:03;100867.30;;;15.96;83.17
78409;BME280;67697;50.750;-3.270;2023-08-08T08:45:29;100873.25;;;15.80;83.28
78409;BME280;67697;50.750;-3.270;2023-08-08T08:47:56;100872.43;;;15.99;82.50
78409;BME280;67697;50.750;-3.270;2023-08-08T08:50:19;100875.77;;;16.33;81.52
78409;BME280;67697;50.750;-3.270;2023-08-08T08:52:44;100871.06;;;16.17;81.28
78409;BME280;67697;50.750;-3.270;2023-08-08T08:55:10;100875.59;;;16.35;81.85
78409;BME280;67697;50.750;-3.270;2023-08-08T08:57:36;100872.80;;;16.19;81.76
78409;BME280;67697;50.750;-3.270;2023-08-08T09:00:01;100869.66;;;16.03;82.45
78409;BME280;67697;50.750;-3.270;2023-08-08T09:02:26;100861.40;;;16.80;80.00
78409;BME280;67697;50.750;-3.270;2023-08-08T09:04:52;100856.02;;;16.44;80.84
78409;BME280;67697;50.750;-3.270;2023-08-08T09:07:20;100861.68;;;16.85;79.72
78409;BME280;67697;50.750;-3.270;2023-08-08T09:09:43;100866.72;;;16.51;79.65
78409;BME280;67697;50.750;-3.270;2023-08-08T09:12:09;100867.29;;;16.15;81.26
78409;BME280;67697;50.750;-3.270;2023-08-08T09:14:34;100869.27;;;16.21;81.75
78409;BME280;67697;50.750;-3.270;2023-08-08T09:17:00;100873.30;;;16.31;81.51
78409;BME280;67697;50.750;-3.270;2023-08-08T09:19:25;100869.18;;;16.22;81.86
78409;BME280;67697;50.750;-3.270;2023-08-08T09:21:52;100861.88;;;16.65;78.61
78409;BME280;67697;50.750;-3.270;2023-08-08T09:24:21;100856.98;;;16.33;79.26
78409;BME280;67697;50.750;-3.270;2023-08-08T09:26:42;100849.68;;;16.84;78.54
78409;BME280;67697;50.750;-3.270;2023-08-08T09:29:08;100844.59;;;17.20;78.58
78409;BME280;67697;50.750;-3.270;2023-08-08T09:31:42;100846.63;;;16.89;79.24
78409;BME280;67697;50.750;-3.270;2023-08-08T09:33:59;100851.88;;;17.12;79.21
78409;BME280;67697;50.750;-3.270;2023-08-08T09:36:24;100853.64;;;16.55;82.26
78409;BME280;67697;50.750;-3.270;2023-08-08T09:38:49;100849.54;;;16.13;81.34
78409;BME280;67697;50.750;-3.270;2023-08-08T09:41:15;100844.95;;;16.75;80.76
78409;BME280;67697;50.750;-3.270;2023-08-08T09:43:43;100840.85;;;17.00;81.65
78409;BME280;67697;50.750;-3.270;2023-08-08T09:46:08;100838.70;;;16.86;83.02
78409;BME280;67697;50.750;-3.270;2023-08-08T09:48:33;100839.17;;;16.63;83.02
78409;BME280;67697;50.750;-3.270;2023-08-08T09:50:58;100846.86;;;16.21;85.08
78409;BME280;67697;50.750;-3.270;2023-08-08T09:53:23;100846.51;;;16.14;84.91
78409;BME280;67697;50.750;-3.270;2023-08-08T09:55:49;100848.34;;;16.33;84.12
78409;BME280;67697;50.750;-3.270;2023-08-08T09:58:14;100842.71;;;16.61;83.53
78409;BME280;67697;50.750;-3.270;2023-08-08T10:00:39;100844.46;;;16.23;83.07
78409;BME280;67697;50.750;-3.270;2023-08-08T10:03:06;100841.60;;;16.45;82.18
78409;BME280;67697;50.750;-3.270;2023-08-08T10:05:30;100843.71;;;16.48;82.64
78409;BME280;67697;50.750;-3.270;2023-08-08T10:07:56;100843.24;;;15.82;84.99
78409;BME280;67697;50.750;-3.270;2023-08-08T10:10:21;100845.11;;;15.67;86.01
78409;BME280;67697;50.750;-3.270;2023-08-08T10:12:48;100846.26;;;15.90;86.69
78409;BME280;67697;50.750;-3.270;2023-08-08T10:15:13;100838.76;;;16.11;85.20
78409;BME280;67697;50.750;-3.270;2023-08-08T10:17:43;100838.52;;;15.97;86.05
78409;BME280;67697;50.750;-3.270;2023-08-08T10:20:05;100846.30;;;16.38;89.31
78409;BME280;67697;50.750;-3.270;2023-08-08T10:22:29;100846.64;;;15.81;91.07
78409;BME280;67697;50.750;-3.270;2023-08-08T10:24:55;100840.30;;;15.89;90.91
78409;BME280;67697;50.750;-3.270;2023-08-08T10:27:31;100845.38;;;16.32;89.99
78409;BME280;67697;50.750;-3.270;2023-08-08T10:29:47;100832.14;;;16.70;87.47
78409;BME280;67697;50.750;-3.270;2023-08-08T10:32:11;100826.82;;;16.38;87.25
78409;BME280;67697;50.750;-3.270;2023-08-08T10:34:38;100820.41;;;17.17;86.59
78409;BME280;67697;50.750;-3.270;2023-08-08T10:37:04;100817.21;;;17.35;84.78
78409;BME280;67697;50.750;-3.270;2023-08-08T10:39:30;100815.30;;;17.55;82.54
78409;BME280;67697;50.750;-3.270;2023-08-08T10:41:53;100813.73;;;17.46;82.02
78409;BME280;67697;50.750;-3.270;2023-08-08T10:44:23;100815.67;;;17.33;81.71
78409;BME280;67697;50.750;-3.270;2023-08-08T10:46:44;100817.49;;;17.35;81.76
78409;BME280;67697;50.750;-3.270;2023-08-08T10:49:12;100817.72;;;17.17;81.27
78409;BME280;67697;50.750;-3.270;2023-08-08T10:51:38;100820.36;;;16.86;83.51
78409;BME280;67697;50.750;-3.270;2023-08-08T10:54:04;100818.31;;;17.30;82.16
78409;BME280;67697;50.750;-3.270;2023-08-08T10:56:27;100813.69;;;17.55;82.53
78409;BME280;67697;50.750;-3.270;2023-08-08T10:58:52;100815.45;;;17.42;82.14
78409;BME280;67697;50.750;-3.270;2023-08-08T11:01:17;100814.10;;;18.03;81.17
78409;BME280;67697;50.750;-3.270;2023-08-08T11:03:44;100822.96;;;17.57;81.81
78409;BME280;67697;50.750;-3.270;2023-08-08T11:06:09;100816.44;;;17.83;81.26
78409;BME280;67697;50.750;-3.270;2023-08-08T11:08:34;100807.10;;;17.79;81.12
78409;BME280;67697;50.750;-3.270;2023-08-08T11:10:59;100805.98;;;17.66;81.32
78409;BME280;67697;50.750;-3.270;2023-08-08T11:13:25;100802.75;;;18.03;80.12
78409;BME280;67697;50.750;-3.270;2023-08-08T11:15:51;100804.81;;;18.04;79.70
78409;BME280;67697;50.750;-3.270;2023-08-08T11:18:16;100809.50;;;17.92;79.87
78409;BME280;67697;50.750;-3.270;2023-08-08T11:20:41;100811.94;;;18.28;80.16
78409;BME280;67697;50.750;-3.270;2023-08-08T11:23:07;100808.63;;;18.61;78.43
78409;BME280;67697;50.750;-3.270;2023-08-08T11:25:33;100802.82;;;18.03;80.14
78409;BME280;67697;50.750;-3.270;2023-08-08T11:27:58;100805.30;;;17.78;80.37
78409;BME280;67697;50.750;-3.270;2023-08-08T11:30:28;100805.68;;;18.05;80.70
78409;BME280;67697;50.750;-3.270;2023-08-08T11:32:50;100806.73;;;17.95;79.38
78409;BME280;67697;50.750;-3.270;2023-08-08T11:35:16;100809.38;;;17.77;79.20
78409;BME280;67697;50.750;-3.270;2023-08-08T11:37:40;100809.78;;;18.02;80.33
78409;BME280;67697;50.750;-3.270;2023-08-08T11:40:07;100810.53;;;18.29;79.05
78409;BME280;67697;50.750;-3.270;2023-08-08T11:42:31;100809.06;;;17.91;78.84
78409;BME280;67697;50.750;-3.270;2023-08-08T11:44:57;100810.47;;;17.91;80.21
78409;BME280;67697;50.750;-3.270;2023-08-08T11:47:25;100806.15;;;18.53;77.32
78409;BME280;67697;50.750;-3.270;2023-08-08T11:49:48;100802.13;;;18.88;78.74
78409;BME280;67697;50.750;-3.270;2023-08-08T11:52:13;100794.94;;;19.32;75.83
78409;BME280;67697;50.750;-3.270;2023-08-08T11:54:38;100792.18;;;19.02;76.67
78409;BME280;67697;50.750;-3.270;2023-08-08T11:57:04;100784.38;;;19.34;75.34
78409;BME280;67697;50.750;-3.270;2023-08-08T11:59:31;100785.86;;;19.33;76.52
78409;BME280;67697;50.750;-3.270;2023-08-08T12:01:56;100783.98;;;19.49;75.73
78409;BME280;67697;50.750;-3.270;2023-08-08T12:04:20;100784.38;;;19.28;76.27
78409;BME280;67697;50.750;-3.270;2023-08-08T12:06:46;100774.58;;;19.79;75.76
78409;BME280;67697;50.750;-3.270;2023-08-08T12:09:12;100770.10;;;19.54;75.05
78409;BME280;67697;50.750;-3.270;2023-08-08T12:11:37;100770.52;;;18.74;78.08
78409;BME280;67697;50.750;-3.270;2023-08-08T12:14:02;100769.61;;;19.03;77.86
78409;BME280;67697;50.750;-3.270;2023-08-08T12:16:29;100762.96;;;17.81;80.27
78409;BME280;67697;50.750;-3.270;2023-08-08T12:18:53;100762.65;;;18.11;80.04
78409;BME280;67697;50.750;-3.270;2023-08-08T12:21:19;100760.57;;;17.56;81.21
78409;BME280;67697;50.750;-3.270;2023-08-08T12:23:44;100763.36;;;17.54;82.47
78409;BME280;67697;50.750;-3.270;2023-08-08T12:26:10;100754.78;;;17.62;82.05
78409;BME280;67697;50.750;-3.270;2023-08-08T12:28:35;100755.97;;;18.26;80.31
78409;BME280;67697;50.750;-3.270;2023-08-08T12:31:01;100753.28;;;17.91;80.60